sensor_id;sensor_type;location;lat;lon;timestamp;P1;durP1;ratioP1;P2;durP2;ratioP2
4756;SDS011;2392;52.578;13.426;2023-04-07T00:00:14;10.57;;;8.27;;
4756;SDS011;2392;52.578;13.426;2023-04-07T00:02:42;13.83;;;7.70;;
4756;SDS011;2392;52.578;13.426;2023-04-07T00:05:09;12.73;;;7.00;;
4756;SDS011;2392;52.578;13.426;2023-04-07T00:07:38;7.57;;;6.80;;
4756;SDS011;2392;52.578;13.426;2023-04-07T00:10:05;7.07;;;6.30;;
4756;SDS011;2392;52.578;13.426;2023-04-07T00:12:33;13.07;;;7.47;;
4756;SDS011;2392;52.578;13.426;2023-04-07T00:15:00;8.27;;;7.47;;
4756;SDS011;2392;52.578;13.426;2023-04-07T00:17:27;13.80;;;9.47;;
4756;SDS011;2392;52.578;13.426;2023-04-07T00:19:54;14.53;;;8.30;;
4756;SDS011;2392;52.578;13.426;2023-04-07T00:22:21;14.30;;;8.40;;
4756;SDS011;2392;52.578;13.426;2023-04-07T00:24:49;9.93;;;8.10;;
4756;SDS011;2392;52.578;13.426;2023-04-07T00:27:16;9.40;;;7.97;;
4756;SDS011;2392;52.578;13.426;2023-04-07T00:29:43;10.93;;;8.60;;
4756;SDS011;2392;52.578;13.426;2023-04-07T00:32:11;14.10;;;8.63;;
4756;SDS011;2392;52.578;13.426;2023-04-07T00:34:38;11.10;;;7.97;;
4756;SDS011;2392;52.578;13.426;2023-04-07T00:37:05;14.40;;;9.20;;
4756;SDS011;2392;52.578;13.426;2023-04-07T00:39:32;14.30;;;8.40;;
4756;SDS011;2392;52.578;13.426;2023-04-07T00:42:02;14.20;;;8.03;;
4756;SDS011;2392;52.578;13.426;2023-04-07T00:44:29;8.37;;;7.50;;
4756;SDS011;2392;52.578;13.426;2023-04-07T00:46:56;10.93;;;8.80;;
4756;SDS011;2392;52.578;13.426;2023-04-07T00:49:24;15.90;;;8.73;;
4756;SDS011;2392;52.578;13.426;2023-04-07T00:51:52;11.50;;;8.23;;
4756;SDS011;2392;52.578;13.426;2023-04-07T00:54:20;15.13;;;8.97;;
4756;SDS011;2392;52.578;13.426;2023-04-07T00:56:48;9.93;;;8.53;;
4756;SDS011;2392;52.578;13.426;2023-04-07T00:59:17;11.60;;;8.50;;
4756;SDS011;2392;52.578;13.426;2023-04-07T01:01:47;14.70;;;9.00;;
4756;SDS011;2392;52.578;13.426;2023-04-07T01:04:25;14.20;;;10.70;;
4756;SDS011;2392;52.578;13.426;2023-04-07T01:06:56;14.00;;;11.17;;
4756;SDS011;2392;52.578;13.426;2023-04-07T01:09:39;18.73;;;13.67;;
4756;SDS011;2392;52.578;13.426;2023-04-07T01:12:12;19.77;;;16.07;;
4756;SDS011;2392;52.578;13.426;2023-04-07T01:14:49;23.77;;;19.80;;
4756;SDS011;2392;52.578;13.426;2023-04-07T01:17:41;28.03;;;21.30;;
4756;SDS011;2392;52.578;13.426;2023-04-07T01:20:11;28.47;;;25.17;;
4756;SDS011;2392;52.578;13.426;2023-04-07T01:22:44;25.23;;;20.67;;
4756;SDS011;2392;52.578;13.426;2023-04-07T01:28:12;22.60;;;17.53;;
4756;SDS011;2392;52.578;13.426;2023-04-07T01:30:52;16.23;;;13.77;;
4756;SDS011;2392;52.578;13.426;2023-04-07T01:33:22;17.30;;;13.33;;
4756;SDS011;2392;52.578;13.426;2023-04-07T01:35:50;17.80;;;14.73;;
4756;SDS011;2392;52.578;13.426;2023-04-07T01:38:18;17.50;;;12.10;;
4756;SDS011;2392;52.578;13.426;2023-04-07T01:40:46;14.77;;;10.80;;
4756;SDS011;2392;52.578;13.426;2023-04-07T01:43:15;13.37;;;9.37;;
4756;SDS011;2392;52.578;13.426;2023-04-07T01:45:43;11.37;;;9.73;;
4756;SDS011;2392;52.578;13.426;2023-04-07T01:48:12;18.00;;;9.87;;
4756;SDS011;2392;52.578;13.426;2023-04-07T01:50:41;10.90;;;8.90;;
4756;SDS011;2392;52.578;13.426;2023-04-07T01:53:09;11.93;;;9.87;;
4756;SDS011;2392;52.578;13.426;2023-04-07T01:55:37;13.93;;;8.10;;
4756;SDS011;2392;52.578;13.426;2023-04-07T01:58:07;12.80;;;9.60;;
4756;SDS011;2392;52.578;13.426;2023-04-07T02:00:37;13.87;;;10.60;;
4756;SDS011;2392;52.578;13.426;2023-04-07T02:03:12;16.60;;;11.17;;
4756;SDS011;2392;52.578;13.426;2023-04-07T02:05:46;15.20;;;9.37;;
4756;SDS011;2392;52.578;13.426;2023-04-07T02:08:16;13.53;;;9.50;;
4756;SDS011;2392;52.578;13.426;2023-04-07T02:10:46;14.00;;;9.00;;
4756;SDS011;2392;52.578;13.426;2023-04-07T02:13:15;16.20;;;9.90;;
4756;SDS011;2392;52.578;13.426;2023-04-07T02:15:47;10.87;;;9.77;;
4756;SDS011;2392;52.578;13.426;2023-04-07T02:18:18;15.87;;;10.53;;
4756;SDS011;2392;52.578;13.426;2023-04-07T02:20:47;13.47;;;9.40;;
4756;SDS011;2392;52.578;13.426;2023-04-07T02:23:15;15.63;;;9.67;;
4756;SDS011;2392;52.578;13.426;2023-04-07T02:25:43;17.27;;;10.97;;
4756;SDS011;2392;52.578;13.426;2023-04-07T02:28:10;16.93;;;10.80;;
4756;SDS011;2392;52.578;13.426;2023-04-07T02:30:37;14.57;;;9.57;;
4756;SDS011;2392;52.578;13.426;2023-04-07T02:33:04;12.57;;;9.30;;
4756;SDS011;2392;52.578;13.426;2023-04-07T02:35:33;14.00;;;9.60;;
4756;SDS011;2392;52.578;13.426;2023-04-07T02:38:00;10.80;;;8.27;;
4756;SDS011;2392;52.578;13.426;2023-04-07T02:40:27;15.17;;;9.13;;
4756;SDS011;2392;52.578;13.426;2023-04-07T02:42:55;10.70;;;8.90;;
4756;SDS011;2392;52.578;13.426;2023-04-07T02:45:22;14.40;;;8.67;;
4756;SDS011;2392;52.578;13.426;2023-04-07T02:47:49;15.70;;;9.27;;
4756;SDS011;2392;52.578;13.426;2023-04-07T02:50:16;10.97;;;8.23;;
4756;SDS011;2392;52.578;13.426;2023-04-07T02:52:45;12.57;;;8.97;;
4756;SDS011;2392;52.578;13.426;2023-04-07T02:55:13;12.87;;;8.60;;
4756;SDS011;2392;52.578;13.426;2023-04-07T02:57:42;14.03;;;9.10;;
4756;SDS011;2392;52.578;13.426;2023-04-07T03:00:29;15.50;;;8.53;;
4756;SDS011;2392;52.578;13.426;2023-04-07T03:03:02;10.00;;;7.90;;
4756;SDS011;2392;52.578;13.426;2023-04-07T03:05:33;12.93;;;8.30;;
4756;SDS011;2392;52.578;13.426;2023-04-07T03:08:03;10.93;;;8.97;;
4756;SDS011;2392;52.578;13.426;2023-04-07T03:10:30;11.97;;;8.23;;
4756;SDS011;2392;52.578;13.426;2023-04-07T03:12:57;10.23;;;7.80;;
4756;SDS011;2392;52.578;13.426;2023-04-07T03:15:25;10.73;;;7.83;;
4756;SDS011;2392;52.578;13.426;2023-04-07T03:17:54;15.20;;;8.20;;
4756;SDS011;2392;52.578;13.426;2023-04-07T03:20:21;12.73;;;8.37;;
4756;SDS011;2392;52.578;13.426;2023-04-07T03:22:48;12.43;;;8.20;;
4756;SDS011;2392;52.578;13.426;2023-04-07T03:25:22;8.00;;;7.20;;
4756;SDS011;2392;52.578;13.426;2023-04-07T03:27:50;9.13;;;7.43;;
4756;SDS011;2392;52.578;13.426;2023-04-07T03:30:18;12.83;;;8.50;;
4756;SDS011;2392;52.578;13.426;2023-04-07T03:32:46;13.10;;;8.73;;
4756;SDS011;2392;52.578;13.426;2023-04-07T03:35:13;7.70;;;6.90;;
4756;SDS011;2392;52.578;13.426;2023-04-07T03:37:42;15.87;;;8.33;;
4756;SDS011;2392;52.578;13.426;2023-04-07T03:40:13;10.23;;;7.17;;
4756;SDS011;2392;52.578;13.426;2023-04-07T03:42:42;13.97;;;8.47;;
4756;SDS011;2392;52.578;13.426;2023-04-07T03:45:11;11.50;;;8.23;;
4756;SDS011;2392;52.578;13.426;2023-04-07T03:47:44;10.37;;;7.43;;
4756;SDS011;2392;52.578;13.426;2023-04-07T03:50:11;11.87;;;7.60;;
4756;SDS011;2392;52.578;13.426;2023-04-07T03:53:02;9.73;;;7.70;;
4756;SDS011;2392;52.578;13.426;2023-04-07T03:55:29;11.83;;;7.27;;
4756;SDS011;2392;52.578;13.426;2023-04-07T03:58:05;12.43;;;7.13;;
4756;SDS011;2392;52.578;13.426;2023-04-07T04:00:35;9.20;;;8.00;;
4756;SDS011;2392;52.578;13.426;2023-04-07T04:03:06;11.60;;;7.40;;
4756;SDS011;2392;52.578;13.426;2023-04-07T04:05:37;17.33;;;7.40;;
4756;SDS011;2392;52.578;13.426;2023-04-07T04:08:05;10.40;;;7.13;;
4756;SDS011;2392;52.578;13.426;2023-04-07T04:10:35;8.60;;;6.33;;
4756;SDS011;2392;52.578;13.426;2023-04-07T04:13:03;8.93;;;6.30;;
4756;SDS011;2392;52.578;13.426;2023-04-07T04:15:34;10.70;;;7.50;;
4756;SDS011;2392;52.578;13.426;2023-04-07T04:18:03;8.93;;;6.90;;
4756;SDS011;2392;52.578;13.426;2023-04-07T04:20:32;9.40;;;6.50;;
4756;SDS011;2392;52.578;13.426;2023-04-07T04:23:00;9.67;;;7.17;;
4756;SDS011;2392;52.578;13.426;2023-04-07T04:25:27;12.50;;;7.50;;
4756;SDS011;2392;52.578;13.426;2023-04-07T04:27:56;9.07;;;6.60;;
4756;SDS011;2392;52.578;13.426;2023-04-07T04:30:25;12.20;;;7.60;;
4756;SDS011;2392;52.578;13.426;2023-04-07T04:32:56;9.60;;;6.90;;
4756;SDS011;2392;52.578;13.426;2023-04-07T04:35:32;9.33;;;6.90;;
4756;SDS011;2392;52.578;13.426;2023-04-07T04:38:05;13.23;;;6.90;;
4756;SDS011;2392;52.578;13.426;2023-04-07T04:40:34;9.97;;;6.60;;
4756;SDS011;2392;52.578;13.426;2023-04-07T04:43:03;9.17;;;7.00;;
4756;SDS011;2392;52.578;13.426;2023-04-07T04:45:33;10.67;;;6.77;;
4756;SDS011;2392;52.578;13.426;2023-04-07T04:48:02;11.33;;;6.70;;
4756;SDS011;2392;52.578;13.426;2023-04-07T04:50:30;9.60;;;6.87;;
4756;SDS011;2392;52.578;13.426;2023-04-07T04:52:58;12.43;;;7.50;;
4756;SDS011;2392;52.578;13.426;2023-04-07T04:55:26;8.43;;;6.63;;
4756;SDS011;2392;52.578;13.426;2023-04-07T04:57:53;11.97;;;7.53;;
4756;SDS011;2392;52.578;13.426;2023-04-07T05:00:29;7.80;;;6.70;;
4756;SDS011;2392;52.578;13.426;2023-04-07T05:03:02;8.40;;;5.90;;
4756;SDS011;2392;52.578;13.426;2023-04-07T05:05:34;9.60;;;7.43;;
4756;SDS011;2392;52.578;13.426;2023-04-07T05:08:01;10.13;;;6.63;;
4756;SDS011;2392;52.578;13.426;2023-04-07T05:10:36;10.00;;;6.80;;
4756;SDS011;2392;52.578;13.426;2023-04-07T05:13:06;9.37;;;6.73;;
4756;SDS011;2392;52.578;13.426;2023-04-07T05:15:34;9.40;;;6.60;;
4756;SDS011;2392;52.578;13.426;2023-04-07T05:18:05;11.27;;;6.73;;
4756;SDS011;2392;52.578;13.426;2023-04-07T05:20:32;7.57;;;6.60;;
4756;SDS011;2392;52.578;13.426;2023-04-07T05:22:59;7.63;;;6.20;;
4756;SDS011;2392;52.578;13.426;2023-04-07T05:25:31;9.33;;;6.17;;
4756;SDS011;2392;52.578;13.426;2023-04-07T05:28:02;7.67;;;6.70;;
4756;SDS011;2392;52.578;13.426;2023-04-07T05:30:29;7.47;;;6.23;;
4756;SDS011;2392;52.578;13.426;2023-04-07T05:32:57;14.90;;;7.00;;
4756;SDS011;2392;52.578;13.426;2023-04-07T05:35:47;11.03;;;7.07;;
4756;SDS011;2392;52.578;13.426;2023-04-07T05:38:14;10.07;;;7.70;;
4756;SDS011;2392;52.578;13.426;2023-04-07T05:40:42;7.70;;;6.53;;
4756;SDS011;2392;52.578;13.426;2023-04-07T05:43:15;11.53;;;6.90;;
4756;SDS011;2392;52.578;13.426;2023-04-07T05:45:42;10.97;;;6.80;;
4756;SDS011;2392;52.578;13.426;2023-04-07T05:48:09;11.83;;;7.70;;
4756;SDS011;2392;52.578;13.426;2023-04-07T05:50:41;7.87;;;7.10;;
4756;SDS011;2392;52.578;13.426;2023-04-07T05:53:13;10.97;;;7.43;;
4756;SDS011;2392;52.578;13.426;2023-04-07T05:55:41;11.30;;;8.20;;
4756;SDS011;2392;52.578;13.426;2023-04-07T05:58:11;12.17;;;7.50;;
4756;SDS011;2392;52.578;13.426;2023-04-07T06:00:42;9.97;;;6.90;;
4756;SDS011;2392;52.578;13.426;2023-04-07T06:03:13;11.37;;;7.83;;
4756;SDS011;2392;52.578;13.426;2023-04-07T06:05:51;10.40;;;7.87;;
4756;SDS011;2392;52.578;13.426;2023-04-07T06:08:20;10.60;;;7.50;;
4756;SDS011;2392;52.578;13.426;2023-04-07T06:10:48;12.70;;;7.30;;
4756;SDS011;2392;52.578;13.426;2023-04-07T06:13:15;10.57;;;7.20;;
4756;SDS011;2392;52.578;13.426;2023-04-07T06:15:42;11.07;;;7.50;;
4756;SDS011;2392;52.578;13.426;2023-04-07T06:18:09;10.13;;;7.43;;
4756;SDS011;2392;52.578;13.426;2023-04-07T06:20:35;13.30;;;8.50;;
4756;SDS011;2392;52.578;13.426;2023-04-07T06:23:03;12.73;;;8.10;;
4756;SDS011;2392;52.578;13.426;2023-04-07T06:25:32;13.70;;;7.40;;
4756;SDS011;2392;52.578;13.426;2023-04-07T06:27:59;12.10;;;8.73;;
4756;SDS011;2392;52.578;13.426;2023-04-07T06:30:26;15.20;;;8.10;;
4756;SDS011;2392;52.578;13.426;2023-04-07T06:32:53;13.13;;;8.53;;
4756;SDS011;2392;52.578;13.426;2023-04-07T06:35:20;9.37;;;7.87;;
4756;SDS011;2392;52.578;13.426;2023-04-07T06:37:47;12.07;;;7.73;;
4756;SDS011;2392;52.578;13.426;2023-04-07T06:40:14;15.40;;;8.90;;
4756;SDS011;2392;52.578;13.426;2023-04-07T06:42:43;13.33;;;9.00;;
4756;SDS011;2392;52.578;13.426;2023-04-07T06:45:20;11.37;;;8.13;;
4756;SDS011;2392;52.578;13.426;2023-04-07T06:47:47;13.03;;;8.10;;
4756;SDS011;2392;52.578;13.426;2023-04-07T06:50:14;10.27;;;7.37;;
4756;SDS011;2392;52.578;13.426;2023-04-07T06:52:44;11.63;;;8.73;;
4756;SDS011;2392;52.578;13.426;2023-04-07T06:55:12;10.23;;;7.63;;
4756;SDS011;2392;52.578;13.426;2023-04-07T06:57:39;14.30;;;7.60;;
4756;SDS011;2392;52.578;13.426;2023-04-07T07:00:08;11.47;;;7.60;;
4756;SDS011;2392;52.578;13.426;2023-04-07T07:02:36;13.37;;;7.70;;
4756;SDS011;2392;52.578;13.426;2023-04-07T07:05:03;12.97;;;8.13;;
4756;SDS011;2392;52.578;13.426;2023-04-07T07:07:31;13.17;;;7.60;;
4756;SDS011;2392;52.578;13.426;2023-04-07T07:09:58;8.43;;;6.70;;
4756;SDS011;2392;52.578;13.426;2023-04-07T07:12:25;12.33;;;8.10;;
4756;SDS011;2392;52.578;13.426;2023-04-07T07:14:52;8.57;;;6.83;;
4756;SDS011;2392;52.578;13.426;2023-04-07T07:17:21;9.40;;;7.07;;
4756;SDS011;2392;52.578;13.426;2023-04-07T07:19:48;6.63;;;5.80;;
4756;SDS011;2392;52.578;13.426;2023-04-07T07:22:19;7.17;;;5.53;;
4756;SDS011;2392;52.578;13.426;2023-04-07T07:24:46;9.87;;;5.90;;
4756;SDS011;2392;52.578;13.426;2023-04-07T07:27:13;6.77;;;6.00;;
4756;SDS011;2392;52.578;13.426;2023-04-07T07:29:40;11.13;;;5.83;;
4756;SDS011;2392;52.578;13.426;2023-04-07T07:32:07;6.63;;;5.93;;
4756;SDS011;2392;52.578;13.426;2023-04-07T07:34:35;7.53;;;5.90;;
4756;SDS011;2392;52.578;13.426;2023-04-07T07:37:02;7.17;;;5.90;;
4756;SDS011;2392;52.578;13.426;2023-04-07T07:39:29;8.90;;;5.90;;
4756;SDS011;2392;52.578;13.426;2023-04-07T07:41:56;11.53;;;6.17;;
4756;SDS011;2392;52.578;13.426;2023-04-07T07:44:23;8.20;;;5.67;;
4756;SDS011;2392;52.578;13.426;2023-04-07T07:46:50;8.33;;;5.73;;
4756;SDS011;2392;52.578;13.426;2023-04-07T07:49:17;7.70;;;5.47;;
4756;SDS011;2392;52.578;13.426;2023-04-07T07:51:46;8.67;;;6.00;;
4756;SDS011;2392;52.578;13.426;2023-04-07T07:54:13;7.70;;;5.70;;
4756;SDS011;2392;52.578;13.426;2023-04-07T07:56:40;5.83;;;4.77;;
4756;SDS011;2392;52.578;13.426;2023-04-07T07:59:07;6.93;;;4.83;;
4756;SDS011;2392;52.578;13.426;2023-04-07T08:01:34;10.43;;;5.27;;
4756;SDS011;2392;52.578;13.426;2023-04-07T08:04:01;7.70;;;5.40;;
4756;SDS011;2392;52.578;13.426;2023-04-07T08:06:28;7.73;;;5.00;;
4756;SDS011;2392;52.578;13.426;2023-04-07T08:08:58;4.90;;;3.73;;
4756;SDS011;2392;52.578;13.426;2023-04-07T08:11:25;8.80;;;4.40;;
4756;SDS011;2392;52.578;13.426;2023-04-07T08:13:52;5.40;;;4.83;;
4756;SDS011;2392;52.578;13.426;2023-04-07T08:16:19;6.93;;;4.30;;
4756;SDS011;2392;52.578;13.426;2023-04-07T08:18:47;4.97;;;4.47;;
4756;SDS011;2392;52.578;13.426;2023-04-07T08:21:14;4.50;;;4.10;;
4756;SDS011;2392;52.578;13.426;2023-04-07T08:23:41;6.80;;;4.87;;
4756;SDS011;2392;52.578;13.426;2023-04-07T08:26:10;7.27;;;6.57;;
4756;SDS011;2392;52.578;13.426;2023-04-07T08:28:37;5.40;;;4.53;;
4756;SDS011;2392;52.578;13.426;2023-04-07T08:31:04;9.10;;;4.70;;
4756;SDS011;2392;52.578;13.426;2023-04-07T08:33:32;7.60;;;4.77;;
4756;SDS011;2392;52.578;13.426;2023-04-07T08:35:59;5.10;;;4.13;;
4756;SDS011;2392;52.578;13.426;2023-04-07T08:38:26;6.30;;;4.00;;
4756;SDS011;2392;52.578;13.426;2023-04-07T08:40:53;5.17;;;4.20;;
4756;SDS011;2392;52.578;13.426;2023-04-07T08:43:29;6.70;;;4.50;;
4756;SDS011;2392;52.578;13.426;2023-04-07T08:45:58;6.40;;;4.67;;
4756;SDS011;2392;52.578;13.426;2023-04-07T08:48:25;6.87;;;4.10;;
4756;SDS011;2392;52.578;13.426;2023-04-07T08:50:58;4.27;;;3.67;;
4756;SDS011;2392;52.578;13.426;2023-04-07T08:53:30;5.00;;;3.60;;
4756;SDS011;2392;52.578;13.426;2023-04-07T08:56:05;5.10;;;3.57;;
4756;SDS011;2392;52.578;13.426;2023-04-07T08:58:35;6.30;;;3.30;;
4756;SDS011;2392;52.578;13.426;2023-04-07T09:01:03;5.43;;;3.20;;
4756;SDS011;2392;52.578;13.426;2023-04-07T09:03:39;3.60;;;3.30;;
4756;SDS011;2392;52.578;13.426;2023-04-07T09:06:08;3.23;;;2.93;;
4756;SDS011;2392;52.578;13.426;2023-04-07T09:08:36;3.60;;;3.30;;
4756;SDS011;2392;52.578;13.426;2023-04-07T09:11:03;5.97;;;4.07;;
4756;SDS011;2392;52.578;13.426;2023-04-07T09:13:30;4.27;;;3.10;;
4756;SDS011;2392;52.578;13.426;2023-04-07T09:16:00;3.30;;;3.00;;
4756;SDS011;2392;52.578;13.426;2023-04-07T09:18:28;2.97;;;2.53;;
4756;SDS011;2392;52.578;13.426;2023-04-07T09:20:56;3.10;;;2.90;;
4756;SDS011;2392;52.578;13.426;2023-04-07T09:23:27;6.70;;;3.20;;
4756;SDS011;2392;52.578;13.426;2023-04-07T09:25:56;10.07;;;3.27;;
4756;SDS011;2392;52.578;13.426;2023-04-07T09:28:25;3.80;;;3.00;;
4756;SDS011;2392;52.578;13.426;2023-04-07T09:31:05;4.43;;;3.03;;
4756;SDS011;2392;52.578;13.426;2023-04-07T09:33:33;3.07;;;2.87;;
4756;SDS011;2392;52.578;13.426;2023-04-07T09:36:01;4.13;;;3.03;;
4756;SDS011;2392;52.578;13.426;2023-04-07T09:38:31;3.83;;;3.20;;
4756;SDS011;2392;52.578;13.426;2023-04-07T09:41:06;3.13;;;2.90;;
4756;SDS011;2392;52.578;13.426;2023-04-07T09:43:34;6.87;;;4.23;;
4756;SDS011;2392;52.578;13.426;2023-04-07T09:46:08;4.20;;;3.50;;
4756;SDS011;2392;52.578;13.426;2023-04-07T09:48:36;3.27;;;2.80;;
4756;SDS011;2392;52.578;13.426;2023-04-07T09:51:05;4.00;;;2.90;;
4756;SDS011;2392;52.578;13.426;2023-04-07T09:53:40;3.50;;;3.20;;
4756;SDS011;2392;52.578;13.426;2023-04-07T09:56:12;4.93;;;3.27;;
4756;SDS011;2392;52.578;13.426;2023-04-07T09:58:42;3.60;;;2.70;;
4756;SDS011;2392;52.578;13.426;2023-04-07T10:01:12;3.00;;;2.70;;
4756;SDS011;2392;52.578;13.426;2023-04-07T10:03:40;3.87;;;2.90;;
4756;SDS011;2392;52.578;13.426;2023-04-07T10:06:08;6.23;;;3.47;;
4756;SDS011;2392;52.578;13.426;2023-04-07T10:08:36;2.97;;;2.63;;
4756;SDS011;2392;52.578;13.426;2023-04-07T10:11:04;3.83;;;2.73;;
4756;SDS011;2392;52.578;13.426;2023-04-07T10:13:32;4.30;;;3.37;;
4756;SDS011;2392;52.578;13.426;2023-04-07T10:16:01;4.53;;;3.00;;
4756;SDS011;2392;52.578;13.426;2023-04-07T10:18:31;4.00;;;3.20;;
4756;SDS011;2392;52.578;13.426;2023-04-07T10:21:00;3.17;;;2.80;;
4756;SDS011;2392;52.578;13.426;2023-04-07T10:23:31;4.00;;;3.00;;
4756;SDS011;2392;52.578;13.426;2023-04-07T10:26:09;3.27;;;2.93;;
4756;SDS011;2392;52.578;13.426;2023-04-07T10:28:37;3.83;;;3.33;;
4756;SDS011;2392;52.578;13.426;2023-04-07T10:31:09;6.63;;;3.70;;
4756;SDS011;2392;52.578;13.426;2023-04-07T10:33:48;4.37;;;3.63;;
4756;SDS011;2392;52.578;13.426;2023-04-07T10:36:16;3.73;;;3.33;;
4756;SDS011;2392;52.578;13.426;2023-04-07T10:39:17;5.87;;;3.87;;
4756;SDS011;2392;52.578;13.426;2023-04-07T10:41:45;3.90;;;3.50;;
4756;SDS011;2392;52.578;13.426;2023-04-07T10:47:14;6.87;;;3.80;;
4756;SDS011;2392;52.578;13.426;2023-04-07T10:52:45;4.10;;;3.70;;
4756;SDS011;2392;52.578;13.426;2023-04-07T10:55:32;4.53;;;4.00;;
4756;SDS011;2392;52.578;13.426;2023-04-07T10:58:13;5.83;;;4.37;;
4756;SDS011;2392;52.578;13.426;2023-04-07T11:03:52;4.87;;;3.80;;
4756;SDS011;2392;52.578;13.426;2023-04-07T11:06:25;5.63;;;5.00;;
4756;SDS011;2392;52.578;13.426;2023-04-07T11:08:53;7.30;;;4.83;;
4756;SDS011;2392;52.578;13.426;2023-04-07T11:14:12;7.37;;;5.53;;
4756;SDS011;2392;52.578;13.426;2023-04-07T11:16:51;16.90;;;7.87;;
4756;SDS011;2392;52.578;13.426;2023-04-07T11:19:18;7.80;;;6.47;;
4756;SDS011;2392;52.578;13.426;2023-04-07T11:21:47;9.23;;;7.53;;
4756;SDS011;2392;52.578;13.426;2023-04-07T11:26:59;9.17;;;7.37;;
4756;SDS011;2392;52.578;13.426;2023-04-07T11:29:26;7.00;;;6.37;;
4756;SDS011;2392;52.578;13.426;2023-04-07T11:31:54;5.90;;;5.30;;
4756;SDS011;2392;52.578;13.426;2023-04-07T11:34:28;5.40;;;4.93;;
4756;SDS011;2392;52.578;13.426;2023-04-07T11:36:57;6.13;;;5.57;;
4756;SDS011;2392;52.578;13.426;2023-04-07T11:39:26;6.73;;;5.50;;
4756;SDS011;2392;52.578;13.426;2023-04-07T11:41:55;8.73;;;6.13;;
4756;SDS011;2392;52.578;13.426;2023-04-07T11:44:22;7.23;;;5.33;;
4756;SDS011;2392;52.578;13.426;2023-04-07T11:46:53;5.77;;;4.90;;
4756;SDS011;2392;52.578;13.426;2023-04-07T11:49:22;7.07;;;5.70;;
4756;SDS011;2392;52.578;13.426;2023-04-07T11:51:57;6.40;;;4.97;;
4756;SDS011;2392;52.578;13.426;2023-04-07T11:54:26;5.33;;;4.80;;
4756;SDS011;2392;52.578;13.426;2023-04-07T11:57:03;5.50;;;5.00;;
4756;SDS011;2392;52.578;13.426;2023-04-07T11:59:31;6.03;;;5.43;;
4756;SDS011;2392;52.578;13.426;2023-04-07T12:01:58;4.97;;;4.53;;
4756;SDS011;2392;52.578;13.426;2023-04-07T12:04:25;6.50;;;4.53;;
4756;SDS011;2392;52.578;13.426;2023-04-07T12:06:52;5.20;;;4.47;;
4756;SDS011;2392;52.578;13.426;2023-04-07T12:09:27;4.37;;;3.97;;
4756;SDS011;2392;52.578;13.426;2023-04-07T12:11:56;4.50;;;4.03;;
4756;SDS011;2392;52.578;13.426;2023-04-07T12:14:24;5.63;;;4.03;;
4756;SDS011;2392;52.578;13.426;2023-04-07T12:16:51;6.10;;;5.07;;
4756;SDS011;2392;52.578;13.426;2023-04-07T12:19:20;6.53;;;4.47;;
4756;SDS011;2392;52.578;13.426;2023-04-07T12:21:48;5.07;;;4.67;;
4756;SDS011;2392;52.578;13.426;2023-04-07T12:24:15;4.50;;;4.07;;
4756;SDS011;2392;52.578;13.426;2023-04-07T12:26:43;4.13;;;3.80;;
4756;SDS011;2392;52.578;13.426;2023-04-07T12:29:10;3.90;;;3.50;;
4756;SDS011;2392;52.578;13.426;2023-04-07T12:31:38;3.90;;;3.50;;
4756;SDS011;2392;52.578;13.426;2023-04-07T12:34:06;5.70;;;3.87;;
4756;SDS011;2392;52.578;13.426;2023-04-07T12:36:33;7.40;;;4.10;;
4756;SDS011;2392;52.578;13.426;2023-04-07T12:39:00;3.80;;;3.33;;
4756;SDS011;2392;52.578;13.426;2023-04-07T12:41:27;3.23;;;2.97;;
4756;SDS011;2392;52.578;13.426;2023-04-07T12:43:57;3.20;;;2.80;;
4756;SDS011;2392;52.578;13.426;2023-04-07T12:46:24;2.80;;;2.60;;
4756;SDS011;2392;52.578;13.426;2023-04-07T12:48:51;3.50;;;2.80;;
4756;SDS011;2392;52.578;13.426;2023-04-07T12:51:18;3.00;;;2.70;;
4756;SDS011;2392;52.578;13.426;2023-04-07T12:53:45;4.63;;;3.10;;
4756;SDS011;2392;52.578;13.426;2023-04-07T12:56:14;5.20;;;3.67;;
4756;SDS011;2392;52.578;13.426;2023-04-07T12:58:41;3.00;;;2.80;;
4756;SDS011;2392;52.578;13.426;2023-04-07T13:03:52;6.77;;;3.60;;
4756;SDS011;2392;52.578;13.426;2023-04-07T13:06:19;3.47;;;3.17;;
4756;SDS011;2392;52.578;13.426;2023-04-07T13:08:46;4.00;;;3.60;;
4756;SDS011;2392;52.578;13.426;2023-04-07T13:11:13;3.77;;;3.47;;
4756;SDS011;2392;52.578;13.426;2023-04-07T13:13:41;3.93;;;3.57;;
4756;SDS011;2392;52.578;13.426;2023-04-07T13:16:08;4.07;;;3.40;;
4756;SDS011;2392;52.578;13.426;2023-04-07T13:18:35;3.20;;;2.90;;
4756;SDS011;2392;52.578;13.426;2023-04-07T13:21:03;3.73;;;3.43;;
4756;SDS011;2392;52.578;13.426;2023-04-07T13:23:30;5.60;;;4.03;;
4756;SDS011;2392;52.578;13.426;2023-04-07T13:25:57;3.57;;;3.00;;
4756;SDS011;2392;52.578;13.426;2023-04-07T13:28:24;4.07;;;3.67;;
4756;SDS011;2392;52.578;13.426;2023-04-07T13:30:52;3.33;;;2.90;;
4756;SDS011;2392;52.578;13.426;2023-04-07T13:33:19;3.33;;;3.03;;
4756;SDS011;2392;52.578;13.426;2023-04-07T13:35:46;3.73;;;3.30;;
4756;SDS011;2392;52.578;13.426;2023-04-07T13:38:15;4.50;;;3.20;;
4756;SDS011;2392;52.578;13.426;2023-04-07T13:40:42;3.40;;;3.10;;
4756;SDS011;2392;52.578;13.426;2023-04-07T13:43:09;4.30;;;3.50;;
4756;SDS011;2392;52.578;13.426;2023-04-07T13:45:36;4.20;;;3.00;;
4756;SDS011;2392;52.578;13.426;2023-04-07T13:48:03;3.60;;;3.03;;
4756;SDS011;2392;52.578;13.426;2023-04-07T13:50:30;3.90;;;3.60;;
4756;SDS011;2392;52.578;13.426;2023-04-07T13:52:57;3.60;;;3.30;;
4756;SDS011;2392;52.578;13.426;2023-04-07T13:55:25;5.17;;;3.87;;
4756;SDS011;2392;52.578;13.426;2023-04-07T13:57:52;4.77;;;3.77;;
4756;SDS011;2392;52.578;13.426;2023-04-07T14:00:19;5.50;;;3.57;;
4756;SDS011;2392;52.578;13.426;2023-04-07T14:02:47;5.53;;;3.77;;
4756;SDS011;2392;52.578;13.426;2023-04-07T14:05:14;3.10;;;2.80;;
4756;SDS011;2392;52.578;13.426;2023-04-07T14:07:41;3.50;;;3.20;;
4756;SDS011;2392;52.578;13.426;2023-04-07T14:10:08;6.20;;;3.23;;
4756;SDS011;2392;52.578;13.426;2023-04-07T14:12:36;3.30;;;3.10;;
4756;SDS011;2392;52.578;13.426;2023-04-07T14:15:04;3.63;;;2.80;;
4756;SDS011;2392;52.578;13.426;2023-04-07T14:17:31;3.20;;;2.90;;
4756;SDS011;2392;52.578;13.426;2023-04-07T14:19:58;3.97;;;3.40;;
4756;SDS011;2392;52.578;13.426;2023-04-07T14:22:25;5.60;;;3.20;;
4756;SDS011;2392;52.578;13.426;2023-04-07T14:24:52;3.30;;;3.00;;
4756;SDS011;2392;52.578;13.426;2023-04-07T14:27:20;6.40;;;3.07;;
4756;SDS011;2392;52.578;13.426;2023-04-07T14:29:48;3.20;;;3.00;;
4756;SDS011;2392;52.578;13.426;2023-04-07T14:32:15;3.30;;;3.00;;
4756;SDS011;2392;52.578;13.426;2023-04-07T14:34:42;3.57;;;3.27;;
4756;SDS011;2392;52.578;13.426;2023-04-07T14:37:09;3.33;;;2.67;;
4756;SDS011;2392;52.578;13.426;2023-04-07T14:39:38;5.77;;;4.00;;
4756;SDS011;2392;52.578;13.426;2023-04-07T14:42:05;3.20;;;3.00;;
4756;SDS011;2392;52.578;13.426;2023-04-07T14:44:32;3.87;;;2.67;;
4756;SDS011;2392;52.578;13.426;2023-04-07T14:47:01;3.47;;;3.00;;
4756;SDS011;2392;52.578;13.426;2023-04-07T14:49:28;2.80;;;2.60;;
4756;SDS011;2392;52.578;13.426;2023-04-07T14:51:55;4.40;;;2.90;;
4756;SDS011;2392;52.578;13.426;2023-04-07T14:54:22;4.27;;;2.60;;
4756;SDS011;2392;52.578;13.426;2023-04-07T14:56:49;2.77;;;2.57;;
4756;SDS011;2392;52.578;13.426;2023-04-07T14:59:16;2.67;;;2.47;;
4756;SDS011;2392;52.578;13.426;2023-04-07T15:01:43;2.77;;;2.57;;
4756;SDS011;2392;52.578;13.426;2023-04-07T15:04:12;3.03;;;2.73;;
4756;SDS011;2392;52.578;13.426;2023-04-07T15:06:39;3.50;;;2.93;;
4756;SDS011;2392;52.578;13.426;2023-04-07T15:09:07;3.60;;;3.30;;
4756;SDS011;2392;52.578;13.426;2023-04-07T15:11:34;2.80;;;2.60;;
4756;SDS011;2392;52.578;13.426;2023-04-07T15:14:01;3.67;;;3.37;;
4756;SDS011;2392;52.578;13.426;2023-04-07T15:16:29;3.97;;;3.23;;
4756;SDS011;2392;52.578;13.426;2023-04-07T15:18:56;4.40;;;3.43;;
4756;SDS011;2392;52.578;13.426;2023-04-07T15:21:26;5.73;;;3.00;;
4756;SDS011;2392;52.578;13.426;2023-04-07T15:23:53;5.23;;;3.20;;
4756;SDS011;2392;52.578;13.426;2023-04-07T15:26:20;3.23;;;3.03;;